EINXB EIKK-EIKK

Flight info

Callsign EINXB
Flight time 0h 0m
Altitude 4000
Route EIWF
Aircraft E300/L-SFG/C

Departure

Time 2026-04-19 20:33
Airport Kilkenny Airport (EIKK)

Arrival

Time 2026-04-19 20:34
Airport Kilkenny Airport (EIKK)
Time Latitude Longitude Altitude Speed Heading
2026-04-19 20:32 52.65007 -7.30321 265 ft 0 kts 78°
2026-04-19 20:33 52.65032 -7.30052 271 ft 82 kts 73°
2026-04-19 20:33 52.65230 -7.29009 973 ft 62 kts 76°
2026-04-19 20:33 52.65588 -7.28476 552 ft 75 kts 28°
2026-04-19 20:33 52.65661 -7.29256 698 ft 120 kts 184°
2026-04-19 20:34 52.65380 -7.29469 1377 ft 45 kts 345°
2026-04-19 20:34 52.65197 -7.29199 447 ft 85 kts 240°
2026-04-19 20:34 52.65064 -7.29896 272 ft 0 kts 271°
2026-04-19 20:35 52.65007 -7.30321 265 ft 0 kts 78°
2026-04-19 20:35 52.65052 -7.29965 273 ft 100 kts 79°
2026-04-19 20:35 52.65253 -7.28648 776 ft 104 kts 67°
2026-04-19 20:36 52.65615 -7.29497 1469 ft 134 kts 307°
2026-04-19 20:36 52.66067 -7.30660 2669 ft 99 kts 314°
2026-04-19 20:36 52.66183 -7.30926 2601 ft 89 kts 354°
2026-04-19 20:36 52.66186 -7.30968 2042 ft 52 kts 334°
2026-04-19 20:37 52.66066 -7.30988 295 ft 0 kts 34°
2026-04-19 20:37 52.65007 -7.30321 267 ft 0 kts 78°
2026-04-19 20:37 52.64769 -7.29986 268 ft 0 kts 164°
2026-04-19 20:38 52.65007 -7.30321 267 ft 0 kts 78°
2026-04-19 20:38 52.65087 -7.29631 364 ft 109 kts 74°
2026-04-19 20:38 52.65507 -7.28337 413 ft 161 kts 46°
2026-04-19 20:38 52.66027 -7.27697 852 ft 61 kts 256°
2026-04-19 20:39 52.65670 -7.28523 631 ft 134 kts 309°
2026-04-19 20:39 52.65611 -7.28114 896 ft 74 kts 227°
2026-04-19 20:39 52.65202 -7.28617 364 ft 91 kts 250°
2026-04-19 20:39 52.65205 -7.29623 405 ft 107 kts 254°
2026-04-19 20:40 52.65034 -7.29928 274 ft 0 kts 78°
2026-04-19 20:40 52.65008 -7.30317 267 ft 10 kts 76°
2026-04-19 20:40 52.65208 -7.29561 467 ft 116 kts 75°
2026-04-19 20:41 52.65491 -7.28345 1334 ft 97 kts 255°
2026-04-19 20:41 52.65197 -7.28856 481 ft 98 kts 253°
2026-04-19 20:41 52.65045 -7.29675 525 ft 88 kts 219°
2026-04-19 20:41 52.65094 -7.29957 479 ft 72 kts 94°
2026-04-19 20:42 52.65154 -7.29134 345 ft 75 kts 78°
2026-04-19 20:42 52.65260 -7.28308 1362 ft 74 kts 77°
2026-04-19 20:42 52.65339 -7.27992 1038 ft 62 kts 152°
2026-04-19 20:42 52.65182 -7.29022 382 ft 151 kts 253°
2026-04-19 20:43 52.65197 -7.30358 547 ft 103 kts 304°
2026-04-19 20:43 52.65001 -7.30206 288 ft 89 kts 59°
2026-04-19 20:43 52.65094 -7.29530 286 ft 62 kts 76°
2026-04-19 20:43 52.65189 -7.28478 555 ft 143 kts 82°
2026-04-19 20:44 52.65283 -7.29040 381 ft 81 kts 207°
2026-04-19 20:44 52.65091 -7.29656 281 ft 37 kts 256°